LEZG Airport Information

Runway Information
Runway 12L Length 9843 ft width 148 ft
Elevation 823 ft Threshold 0 ft Heading 120
Runway 30R Length 9843 ft Width 148 ft
Elevation 834 ft Threshold 0 ft Heading 300
Runway 12R Length 12198 ft width 148 ft
Elevation 834 ft Threshold 0 ft Heading 120
Runway 30L Length 12198 ft Width 148 ft
Elevation 863 ft Threshold 0 ft Heading 300
Airport Frequencies
Type APP Name APP Frequency 119.3 MHZ
Type GND Name GND Frequency 118.1 MHZ
Type TWR Name TWR Frequency 118.1 MHZ
Airport Navaids
Type VOR-DME Name Zaragoza Frequency 113000 KHZ
Type NDB Name Zaragoza Frequency 389 KHZ
Type TACAN Name Zaragoza Frequency 133700 KHZ
Type NDB Name Zaragoza Frequency 348 KHZ
Airport Weather Information & NOTAM
ADDS - METARS form results

(2154 UTC 29 October 2020)
Data provider http://aviationweather.gov/metar/data/
 
METAR text: LEZG 292130Z 34002KT CAVOK 12/09 Q1026
Conditions at: LEZG (ZARAGOZA (MIL/CI, ES) observed 2130 UTC 29 October 2020
Temperature: 12.0°C (54°F)
Dewpoint: 9.0°C (48°F) [RH = 82%]
Pressure (altimeter): 30.30 inches Hg (1026.0 mb)
Winds: from the NNW (340 degrees) at 2 MPH (2 knots; 1.0 m/s)
Visibility: 6 or more miles (10+ km)
Ceiling: ceiling and visibility are OK
Clouds: unknown
Weather: no significant weather observed at this time

METAR text: LEZG 292100Z 00000KT CAVOK 13/09 Q1026
Conditions at: LEZG (ZARAGOZA (MIL/CI, ES) observed 2100 UTC 29 October 2020
Temperature: 13.0°C (55°F)
Dewpoint: 9.0°C (48°F) [RH = 77%]
Pressure (altimeter): 30.30 inches Hg (1026.0 mb)
Winds: calm
Visibility: 6 or more miles (10+ km)
Ceiling: ceiling and visibility are OK
Clouds: unknown
Weather: no significant weather observed at this time

Forecast for: LEZG (ZARAGOZA (MIL/CI, ES)
Text: TAF LEZG 291700Z 2918/3018 VRB04KT CAVOK TX22/3013Z TN08/3005Z
Forecast period: 1800 UTC 29 October 2020 to 1800 UTC 30 October 2020
Forecast type: FROM: standard forecast or significant change
Winds: variable direction winds at 5 MPH (4 knots; 2.1 m/s)
Visibility: 6 or more miles (10+ km)
Ceiling: unknown
Clouds: missing
Weather: no significant weather forecast for this period